Terminal Aerodrome Forecast
Issued by NWS Wilmington, NC

Home | Current Version | Previous Version | Text Only | Print | Product List | Glossary On
Versions: 1 2 3 4 5 6 7 8 9 10 11 12 13 14 15
238
FTUS42 KILM 242327
TAFMYR
TAF
KMYR 242327Z 2500/2524 22012G20KT P6SM VCSH OVC040
      TEMPO 2500/2503 4SM TSRA OVC025CB
     FM250300 23009G16KT P6SM VCTS BKN050CB
     FM250900 23008KT 3SM BR BKN010
     FM251100 25007KT 3SM BR BKN003
     FM251230 26006KT P6SM BKN003
     FM251500 27007KT P6SM BKN025 PROB30 2515/2518 4SM -TSRA
      OVC015CB
     FM251800 23007KT P6SM BKN025
      AMD LTD TO CLD VIS AND WIND 2503/2510=

USA.gov is the U.S. government's official web portal to all federal, state and local government web resources and services.